createdAt,value
2023-03-23T15:59:53.837Z,17.31
2023-03-23T16:05:15.895Z,17.19
2023-03-23T16:10:38.103Z,17.16
2023-03-23T16:16:00.010Z,16.94
2023-03-23T16:21:21.956Z,16.94
2023-03-23T16:26:43.779Z,16.88
2023-03-23T16:32:05.750Z,16.80
2023-03-23T16:37:27.591Z,16.64
2023-03-23T16:42:49.675Z,16.44
2023-03-23T16:48:13.270Z,16.37
2023-03-23T16:53:35.424Z,16.25
2023-03-23T16:58:57.237Z,16.14
2023-03-23T17:04:19.154Z,16.05
2023-03-23T17:09:42.560Z,15.88
2023-03-23T17:15:05.841Z,15.92
2023-03-23T17:20:27.697Z,15.79
2023-03-23T17:25:49.778Z,15.71
2023-03-23T17:31:11.614Z,15.71
2023-03-23T17:36:33.497Z,15.59
2023-03-23T17:41:55.711Z,15.50
2023-03-23T17:47:17.568Z,15.38
2023-03-23T17:52:40.627Z,15.42
2023-03-23T17:58:02.512Z,15.48
2023-03-23T18:03:25.178Z,15.50
2023-03-23T18:08:47.089Z,15.38
2023-03-23T18:14:08.966Z,15.33
2023-03-23T18:19:30.770Z,15.38
2023-03-23T18:24:52.637Z,15.36
2023-03-23T18:30:14.841Z,15.23
2023-03-23T18:35:36.695Z,15.26
2023-03-23T18:40:59.535Z,15.27
2023-03-23T18:46:21.401Z,15.14
2023-03-23T18:51:43.269Z,15.24
2023-03-23T18:57:05.096Z,15.32
2023-03-23T19:02:27.088Z,15.28
2023-03-23T19:07:49.037Z,15.21
2023-03-23T19:13:10.970Z,15.22
2023-03-23T19:18:33.514Z,15.16
2023-03-23T19:23:55.842Z,15.08
2023-03-23T19:29:26.500Z,15.08
2023-03-23T19:34:51.169Z,15.05
2023-03-23T19:40:31.075Z,15.00
2023-03-23T19:45:55.182Z,14.95
2023-03-23T19:51:21.474Z,14.87
2023-03-23T19:56:43.466Z,14.88
2023-03-23T20:02:05.524Z,14.97
2023-03-23T20:07:27.365Z,14.92
2023-03-23T20:12:49.264Z,14.88
2023-03-23T20:18:11.024Z,14.74
2023-03-23T20:23:33.697Z,14.74
2023-03-23T20:28:55.868Z,14.83
2023-03-23T20:34:18.030Z,14.77
2023-03-23T20:39:39.883Z,14.67
2023-03-23T20:45:02.537Z,14.72
2023-03-23T20:50:24.400Z,14.68
2023-03-23T20:55:46.411Z,14.62
2023-03-23T21:01:08.610Z,14.72
2023-03-23T21:06:31.231Z,14.72
2023-03-23T21:11:53.973Z,14.58
2023-03-23T21:17:15.825Z,14.55
2023-03-23T21:22:37.999Z,14.59
2023-03-23T21:28:00.159Z,14.53
2023-03-23T21:33:22.023Z,14.52
2023-03-23T21:38:44.017Z,14.46
2023-03-23T21:44:06.003Z,14.54
2023-03-23T21:49:28.742Z,14.42
2023-03-23T21:54:50.602Z,14.40
2023-03-23T22:00:12.939Z,14.36
2023-03-23T22:05:38.985Z,14.30
2023-03-23T22:11:03.266Z,14.14
2023-03-23T22:16:26.135Z,14.05
2023-03-23T22:21:48.084Z,13.96
2023-03-23T22:27:09.957Z,13.85
2023-03-23T22:32:31.836Z,13.79
2023-03-23T22:37:54.277Z,13.66
2023-03-23T22:43:16.151Z,13.67
2023-03-23T22:48:38.260Z,13.68
2023-03-23T22:54:00.164Z,13.59
2023-03-23T22:59:22.200Z,13.62
2023-03-23T23:04:44.100Z,13.67
2023-03-23T23:10:06.866Z,13.69
2023-03-23T23:15:28.761Z,13.69
2023-03-23T23:20:53.171Z,13.77
2023-03-23T23:26:16.337Z,13.79
2023-03-23T23:31:38.271Z,13.82
2023-03-23T23:37:00.563Z,13.75
2023-03-23T23:42:23.269Z,13.76
2023-03-23T23:47:46.029Z,13.64
2023-03-23T23:53:08.212Z,13.61
2023-03-23T23:58:30.368Z,13.54
